sensor_id;sensor_type;location;lat;lon;timestamp;P1;durP1;ratioP1;P2;durP2;ratioP2
25948;SDS011;13961;51.178;4.448;2024-03-08T00:01:59;59.58;;;27.80;;
25948;SDS011;13961;51.178;4.448;2024-03-08T00:04:25;61.58;;;27.40;;
25948;SDS011;13961;51.178;4.448;2024-03-08T00:06:51;56.55;;;27.02;;
25948;SDS011;13961;51.178;4.448;2024-03-08T00:09:17;55.35;;;27.27;;
25948;SDS011;13961;51.178;4.448;2024-03-08T00:11:43;54.30;;;26.33;;
25948;SDS011;13961;51.178;4.448;2024-03-08T00:14:08;60.75;;;26.98;;
25948;SDS011;13961;51.178;4.448;2024-03-08T00:16:34;56.97;;;26.27;;
25948;SDS011;13961;51.178;4.448;2024-03-08T00:19:00;53.92;;;25.13;;
25948;SDS011;13961;51.178;4.448;2024-03-08T00:21:26;55.28;;;25.85;;
25948;SDS011;13961;51.178;4.448;2024-03-08T00:23:52;57.22;;;26.45;;
25948;SDS011;13961;51.178;4.448;2024-03-08T00:26:21;54.35;;;25.58;;
25948;SDS011;13961;51.178;4.448;2024-03-08T00:28:49;65.70;;;29.15;;
25948;SDS011;13961;51.178;4.448;2024-03-08T00:31:15;57.33;;;26.38;;
25948;SDS011;13961;51.178;4.448;2024-03-08T00:33:42;57.35;;;25.95;;
25948;SDS011;13961;51.178;4.448;2024-03-08T00:36:08;56.67;;;26.98;;
25948;SDS011;13961;51.178;4.448;2024-03-08T00:38:33;58.67;;;27.02;;
25948;SDS011;13961;51.178;4.448;2024-03-08T00:40:59;59.30;;;25.98;;
25948;SDS011;13961;51.178;4.448;2024-03-08T00:43:25;54.55;;;25.85;;
25948;SDS011;13961;51.178;4.448;2024-03-08T00:45:51;51.70;;;26.63;;
25948;SDS011;13961;51.178;4.448;2024-03-08T00:48:16;53.63;;;25.90;;
25948;SDS011;13961;51.178;4.448;2024-03-08T00:50:42;58.10;;;26.52;;
25948;SDS011;13961;51.178;4.448;2024-03-08T00:53:10;54.38;;;25.15;;
25948;SDS011;13961;51.178;4.448;2024-03-08T00:55:39;49.90;;;25.08;;
25948;SDS011;13961;51.178;4.448;2024-03-08T00:58:05;53.78;;;25.85;;
25948;SDS011;13961;51.178;4.448;2024-03-08T01:00:30;56.55;;;26.38;;
25948;SDS011;13961;51.178;4.448;2024-03-08T01:02:56;53.72;;;26.02;;
25948;SDS011;13961;51.178;4.448;2024-03-08T01:05:22;59.15;;;26.42;;
25948;SDS011;13961;51.178;4.448;2024-03-08T01:07:50;53.85;;;26.50;;
25948;SDS011;13961;51.178;4.448;2024-03-08T01:10:16;54.80;;;25.35;;
25948;SDS011;13961;51.178;4.448;2024-03-08T01:12:42;53.60;;;24.23;;
25948;SDS011;13961;51.178;4.448;2024-03-08T01:15:08;52.70;;;25.98;;
25948;SDS011;13961;51.178;4.448;2024-03-08T01:17:35;52.38;;;25.95;;
25948;SDS011;13961;51.178;4.448;2024-03-08T01:20:01;48.63;;;25.42;;
25948;SDS011;13961;51.178;4.448;2024-03-08T01:22:29;54.40;;;25.50;;
25948;SDS011;13961;51.178;4.448;2024-03-08T01:24:57;53.08;;;25.17;;
25948;SDS011;13961;51.178;4.448;2024-03-08T01:27:24;53.08;;;25.05;;
25948;SDS011;13961;51.178;4.448;2024-03-08T01:29:50;47.10;;;25.20;;
25948;SDS011;13961;51.178;4.448;2024-03-08T01:32:16;48.22;;;25.85;;
25948;SDS011;13961;51.178;4.448;2024-03-08T01:34:42;52.83;;;25.45;;
25948;SDS011;13961;51.178;4.448;2024-03-08T01:37:10;53.47;;;25.20;;
25948;SDS011;13961;51.178;4.448;2024-03-08T01:39:35;53.80;;;24.73;;
25948;SDS011;13961;51.178;4.448;2024-03-08T01:42:01;49.45;;;25.73;;
25948;SDS011;13961;51.178;4.448;2024-03-08T01:44:27;50.03;;;24.55;;
25948;SDS011;13961;51.178;4.448;2024-03-08T01:46:52;52.92;;;24.02;;
25948;SDS011;13961;51.178;4.448;2024-03-08T01:49:20;46.33;;;24.77;;
25948;SDS011;13961;51.178;4.448;2024-03-08T01:51:46;47.58;;;25.20;;
25948;SDS011;13961;51.178;4.448;2024-03-08T01:54:15;58.53;;;25.00;;
25948;SDS011;13961;51.178;4.448;2024-03-08T01:56:43;49.22;;;25.13;;
25948;SDS011;13961;51.178;4.448;2024-03-08T01:59:08;50.63;;;25.38;;
25948;SDS011;13961;51.178;4.448;2024-03-08T02:01:35;46.42;;;24.45;;
25948;SDS011;13961;51.178;4.448;2024-03-08T02:04:00;47.42;;;24.17;;
25948;SDS011;13961;51.178;4.448;2024-03-08T02:06:26;45.50;;;23.90;;
25948;SDS011;13961;51.178;4.448;2024-03-08T02:08:52;45.63;;;25.02;;
25948;SDS011;13961;51.178;4.448;2024-03-08T02:11:18;48.00;;;24.92;;
25948;SDS011;13961;51.178;4.448;2024-03-08T02:13:45;48.28;;;24.42;;
25948;SDS011;13961;51.178;4.448;2024-03-08T02:16:11;44.30;;;22.83;;
25948;SDS011;13961;51.178;4.448;2024-03-08T02:18:37;46.08;;;25.42;;
25948;SDS011;13961;51.178;4.448;2024-03-08T02:21:04;45.58;;;24.42;;
25948;SDS011;13961;51.178;4.448;2024-03-08T02:23:32;47.72;;;24.75;;
25948;SDS011;13961;51.178;4.448;2024-03-08T02:25:58;42.38;;;23.90;;
25948;SDS011;13961;51.178;4.448;2024-03-08T02:28:24;45.95;;;25.00;;
25948;SDS011;13961;51.178;4.448;2024-03-08T02:30:50;47.88;;;25.60;;
25948;SDS011;13961;51.178;4.448;2024-03-08T02:33:19;43.47;;;24.35;;
25948;SDS011;13961;51.178;4.448;2024-03-08T02:35:45;44.42;;;23.70;;
25948;SDS011;13961;51.178;4.448;2024-03-08T02:38:15;47.70;;;24.75;;
25948;SDS011;13961;51.178;4.448;2024-03-08T02:40:45;46.45;;;24.45;;
25948;SDS011;13961;51.178;4.448;2024-03-08T02:43:13;48.47;;;26.38;;
25948;SDS011;13961;51.178;4.448;2024-03-08T02:45:40;47.97;;;26.10;;
25948;SDS011;13961;51.178;4.448;2024-03-08T02:48:07;47.08;;;24.05;;
25948;SDS011;13961;51.178;4.448;2024-03-08T02:50:33;42.88;;;23.40;;
25948;SDS011;13961;51.178;4.448;2024-03-08T02:53:02;43.42;;;23.98;;
25948;SDS011;13961;51.178;4.448;2024-03-08T02:55:28;43.45;;;24.90;;
25948;SDS011;13961;51.178;4.448;2024-03-08T02:57:55;45.83;;;25.00;;
25948;SDS011;13961;51.178;4.448;2024-03-08T03:00:21;42.30;;;23.77;;
25948;SDS011;13961;51.178;4.448;2024-03-08T03:02:48;47.70;;;24.48;;
25948;SDS011;13961;51.178;4.448;2024-03-08T03:05:20;47.22;;;24.73;;
25948;SDS011;13961;51.178;4.448;2024-03-08T03:07:46;44.65;;;24.95;;
25948;SDS011;13961;51.178;4.448;2024-03-08T03:10:13;43.15;;;23.65;;
25948;SDS011;13961;51.178;4.448;2024-03-08T03:12:42;42.15;;;24.58;;
25948;SDS011;13961;51.178;4.448;2024-03-08T03:15:08;42.15;;;23.98;;
25948;SDS011;13961;51.178;4.448;2024-03-08T03:17:33;41.95;;;23.17;;
25948;SDS011;13961;51.178;4.448;2024-03-08T03:19:59;44.17;;;23.75;;
25948;SDS011;13961;51.178;4.448;2024-03-08T03:22:34;39.83;;;22.55;;
25948;SDS011;13961;51.178;4.448;2024-03-08T03:24:59;44.25;;;24.17;;
25948;SDS011;13961;51.178;4.448;2024-03-08T03:27:25;47.58;;;23.42;;
25948;SDS011;13961;51.178;4.448;2024-03-08T03:29:51;42.28;;;24.33;;
25948;SDS011;13961;51.178;4.448;2024-03-08T03:32:17;43.17;;;23.88;;
25948;SDS011;13961;51.178;4.448;2024-03-08T03:34:44;42.42;;;23.83;;
25948;SDS011;13961;51.178;4.448;2024-03-08T03:37:10;44.95;;;24.08;;
25948;SDS011;13961;51.178;4.448;2024-03-08T03:39:39;41.42;;;23.50;;
25948;SDS011;13961;51.178;4.448;2024-03-08T03:42:17;42.40;;;23.92;;
25948;SDS011;13961;51.178;4.448;2024-03-08T03:44:46;40.85;;;24.45;;
25948;SDS011;13961;51.178;4.448;2024-03-08T03:47:13;40.08;;;23.08;;
25948;SDS011;13961;51.178;4.448;2024-03-08T03:49:40;45.83;;;24.02;;
25948;SDS011;13961;51.178;4.448;2024-03-08T03:52:08;42.08;;;24.38;;
25948;SDS011;13961;51.178;4.448;2024-03-08T03:54:35;43.38;;;24.85;;
25948;SDS011;13961;51.178;4.448;2024-03-08T03:57:01;42.28;;;23.50;;
25948;SDS011;13961;51.178;4.448;2024-03-08T03:59:27;42.95;;;23.77;;
25948;SDS011;13961;51.178;4.448;2024-03-08T04:01:54;42.50;;;23.75;;
25948;SDS011;13961;51.178;4.448;2024-03-08T04:04:20;41.65;;;23.23;;
25948;SDS011;13961;51.178;4.448;2024-03-08T04:06:46;45.03;;;23.95;;
25948;SDS011;13961;51.178;4.448;2024-03-08T04:09:11;41.25;;;24.50;;
25948;SDS011;13961;51.178;4.448;2024-03-08T04:11:37;40.13;;;22.65;;
25948;SDS011;13961;51.178;4.448;2024-03-08T04:14:04;37.78;;;22.55;;
25948;SDS011;13961;51.178;4.448;2024-03-08T04:16:30;40.22;;;23.48;;
25948;SDS011;13961;51.178;4.448;2024-03-08T04:18:56;42.05;;;22.73;;
25948;SDS011;13961;51.178;4.448;2024-03-08T04:21:29;39.67;;;23.02;;
25948;SDS011;13961;51.178;4.448;2024-03-08T04:23:55;40.00;;;23.40;;
25948;SDS011;13961;51.178;4.448;2024-03-08T04:26:21;41.40;;;24.13;;
25948;SDS011;13961;51.178;4.448;2024-03-08T04:28:47;42.90;;;23.45;;
25948;SDS011;13961;51.178;4.448;2024-03-08T04:31:13;37.85;;;22.20;;
25948;SDS011;13961;51.178;4.448;2024-03-08T04:33:39;45.00;;;24.08;;
25948;SDS011;13961;51.178;4.448;2024-03-08T04:36:04;41.85;;;23.77;;
25948;SDS011;13961;51.178;4.448;2024-03-08T04:38:30;38.15;;;23.15;;
25948;SDS011;13961;51.178;4.448;2024-03-08T04:40:57;39.22;;;22.58;;
25948;SDS011;13961;51.178;4.448;2024-03-08T04:43:23;41.17;;;23.45;;
25948;SDS011;13961;51.178;4.448;2024-03-08T04:45:55;31.80;;;17.95;;
25948;SDS011;13961;51.178;4.448;2024-03-08T04:48:21;41.38;;;23.30;;
25948;SDS011;13961;51.178;4.448;2024-03-08T04:50:46;39.38;;;22.88;;
25948;SDS011;13961;51.178;4.448;2024-03-08T04:53:12;42.97;;;23.55;;
25948;SDS011;13961;51.178;4.448;2024-03-08T04:55:38;45.72;;;22.48;;
25948;SDS011;13961;51.178;4.448;2024-03-08T04:58:04;40.15;;;22.95;;
25948;SDS011;13961;51.178;4.448;2024-03-08T05:00:33;43.38;;;24.15;;
25948;SDS011;13961;51.178;4.448;2024-03-08T05:02:58;39.65;;;22.27;;
25948;SDS011;13961;51.178;4.448;2024-03-08T05:05:24;38.50;;;23.27;;
25948;SDS011;13961;51.178;4.448;2024-03-08T05:07:51;39.05;;;22.92;;
25948;SDS011;13961;51.178;4.448;2024-03-08T05:10:16;41.70;;;22.80;;
25948;SDS011;13961;51.178;4.448;2024-03-08T05:12:42;42.17;;;23.42;;
25948;SDS011;13961;51.178;4.448;2024-03-08T05:15:08;41.75;;;23.30;;
25948;SDS011;13961;51.178;4.448;2024-03-08T05:17:34;41.17;;;23.35;;
25948;SDS011;13961;51.178;4.448;2024-03-08T05:20:00;38.83;;;23.27;;
25948;SDS011;13961;51.178;4.448;2024-03-08T05:22:26;41.85;;;23.52;;
25948;SDS011;13961;51.178;4.448;2024-03-08T05:24:51;43.03;;;23.48;;
25948;SDS011;13961;51.178;4.448;2024-03-08T05:27:17;45.63;;;23.63;;
25948;SDS011;13961;51.178;4.448;2024-03-08T05:29:43;41.05;;;23.42;;
25948;SDS011;13961;51.178;4.448;2024-03-08T05:32:08;43.58;;;23.58;;
25948;SDS011;13961;51.178;4.448;2024-03-08T05:34:35;44.70;;;23.85;;
25948;SDS011;13961;51.178;4.448;2024-03-08T05:37:01;41.50;;;23.48;;
25948;SDS011;13961;51.178;4.448;2024-03-08T05:39:27;44.60;;;23.88;;
25948;SDS011;13961;51.178;4.448;2024-03-08T05:41:53;40.42;;;23.67;;
25948;SDS011;13961;51.178;4.448;2024-03-08T05:44:20;48.33;;;24.30;;
25948;SDS011;13961;51.178;4.448;2024-03-08T05:46:46;44.53;;;23.42;;
25948;SDS011;13961;51.178;4.448;2024-03-08T05:49:11;44.72;;;24.13;;
25948;SDS011;13961;51.178;4.448;2024-03-08T05:51:39;39.75;;;23.38;;
25948;SDS011;13961;51.178;4.448;2024-03-08T05:54:06;43.45;;;23.63;;
25948;SDS011;13961;51.178;4.448;2024-03-08T05:56:35;43.40;;;23.55;;
25948;SDS011;13961;51.178;4.448;2024-03-08T05:59:01;45.72;;;22.38;;
25948;SDS011;13961;51.178;4.448;2024-03-08T06:01:27;49.70;;;24.65;;
25948;SDS011;13961;51.178;4.448;2024-03-08T06:03:54;60.63;;;24.38;;
25948;SDS011;13961;51.178;4.448;2024-03-08T06:06:23;41.65;;;22.70;;
25948;SDS011;13961;51.178;4.448;2024-03-08T06:08:49;43.85;;;24.05;;
25948;SDS011;13961;51.178;4.448;2024-03-08T06:11:16;43.20;;;22.58;;
25948;SDS011;13961;51.178;4.448;2024-03-08T06:13:43;42.53;;;22.20;;
25948;SDS011;13961;51.178;4.448;2024-03-08T06:16:09;43.28;;;22.27;;
25948;SDS011;13961;51.178;4.448;2024-03-08T06:18:35;44.72;;;23.70;;
25948;SDS011;13961;51.178;4.448;2024-03-08T06:21:04;44.22;;;22.38;;
25948;SDS011;13961;51.178;4.448;2024-03-08T06:23:37;47.90;;;22.73;;
25948;SDS011;13961;51.178;4.448;2024-03-08T06:26:03;41.83;;;22.58;;
25948;SDS011;13961;51.178;4.448;2024-03-08T06:28:29;46.05;;;23.42;;
25948;SDS011;13961;51.178;4.448;2024-03-08T06:30:57;42.03;;;22.83;;
25948;SDS011;13961;51.178;4.448;2024-03-08T06:33:26;44.30;;;24.33;;
25948;SDS011;13961;51.178;4.448;2024-03-08T06:35:53;46.13;;;25.00;;
25948;SDS011;13961;51.178;4.448;2024-03-08T06:38:22;42.65;;;22.77;;
25948;SDS011;13961;51.178;4.448;2024-03-08T06:40:48;49.40;;;24.08;;
25948;SDS011;13961;51.178;4.448;2024-03-08T06:43:14;47.15;;;24.25;;
25948;SDS011;13961;51.178;4.448;2024-03-08T06:45:44;45.78;;;23.00;;
25948;SDS011;13961;51.178;4.448;2024-03-08T06:48:15;44.70;;;22.95;;
25948;SDS011;13961;51.178;4.448;2024-03-08T06:50:44;45.30;;;23.75;;
25948;SDS011;13961;51.178;4.448;2024-03-08T06:53:11;42.60;;;23.65;;
25948;SDS011;13961;51.178;4.448;2024-03-08T06:55:38;42.85;;;22.83;;
25948;SDS011;13961;51.178;4.448;2024-03-08T06:58:04;42.88;;;23.85;;
25948;SDS011;13961;51.178;4.448;2024-03-08T07:00:31;46.10;;;25.33;;
25948;SDS011;13961;51.178;4.448;2024-03-08T07:02:57;44.08;;;23.90;;
25948;SDS011;13961;51.178;4.448;2024-03-08T07:05:26;43.00;;;22.80;;
25948;SDS011;13961;51.178;4.448;2024-03-08T07:07:52;46.78;;;24.38;;
25948;SDS011;13961;51.178;4.448;2024-03-08T07:10:19;41.30;;;21.08;;
25948;SDS011;13961;51.178;4.448;2024-03-08T07:12:49;38.65;;;20.00;;
25948;SDS011;13961;51.178;4.448;2024-03-08T07:15:16;41.47;;;21.45;;
25948;SDS011;13961;51.178;4.448;2024-03-08T07:17:44;39.47;;;22.45;;
25948;SDS011;13961;51.178;4.448;2024-03-08T07:20:10;43.50;;;22.65;;
25948;SDS011;13961;51.178;4.448;2024-03-08T07:22:38;39.58;;;23.02;;
25948;SDS011;13961;51.178;4.448;2024-03-08T07:25:07;40.05;;;22.15;;
25948;SDS011;13961;51.178;4.448;2024-03-08T07:27:33;37.63;;;21.92;;
25948;SDS011;13961;51.178;4.448;2024-03-08T07:30:03;34.70;;;20.73;;
25948;SDS011;13961;51.178;4.448;2024-03-08T07:32:29;37.50;;;20.75;;
25948;SDS011;13961;51.178;4.448;2024-03-08T07:34:56;34.33;;;20.42;;
25948;SDS011;13961;51.178;4.448;2024-03-08T07:37:23;37.55;;;20.13;;
25948;SDS011;13961;51.178;4.448;2024-03-08T07:39:49;32.15;;;20.10;;
25948;SDS011;13961;51.178;4.448;2024-03-08T07:42:15;34.42;;;20.02;;
25948;SDS011;13961;51.178;4.448;2024-03-08T07:44:41;33.58;;;19.98;;
25948;SDS011;13961;51.178;4.448;2024-03-08T07:47:08;32.08;;;20.42;;
25948;SDS011;13961;51.178;4.448;2024-03-08T07:49:35;35.45;;;20.50;;
25948;SDS011;13961;51.178;4.448;2024-03-08T07:52:02;36.13;;;19.45;;
25948;SDS011;13961;51.178;4.448;2024-03-08T07:54:29;34.13;;;19.67;;
25948;SDS011;13961;51.178;4.448;2024-03-08T07:56:55;35.50;;;20.40;;
25948;SDS011;13961;51.178;4.448;2024-03-08T07:59:21;33.17;;;19.33;;
25948;SDS011;13961;51.178;4.448;2024-03-08T08:01:47;34.20;;;19.58;;
25948;SDS011;13961;51.178;4.448;2024-03-08T08:04:13;32.83;;;18.48;;
25948;SDS011;13961;51.178;4.448;2024-03-08T08:06:40;32.78;;;19.23;;
25948;SDS011;13961;51.178;4.448;2024-03-08T08:09:07;33.90;;;18.95;;
25948;SDS011;13961;51.178;4.448;2024-03-08T08:11:39;30.98;;;19.08;;
25948;SDS011;13961;51.178;4.448;2024-03-08T08:14:11;33.70;;;19.65;;
25948;SDS011;13961;51.178;4.448;2024-03-08T08:16:37;28.77;;;18.17;;
25948;SDS011;13961;51.178;4.448;2024-03-08T08:19:06;32.88;;;19.45;;
25948;SDS011;13961;51.178;4.448;2024-03-08T08:21:35;33.38;;;18.77;;
25948;SDS011;13961;51.178;4.448;2024-03-08T08:24:02;28.45;;;18.05;;
25948;SDS011;13961;51.178;4.448;2024-03-08T08:26:28;35.63;;;19.65;;
25948;SDS011;13961;51.178;4.448;2024-03-08T08:28:54;30.73;;;18.17;;
25948;SDS011;13961;51.178;4.448;2024-03-08T08:31:20;28.75;;;17.98;;
25948;SDS011;13961;51.178;4.448;2024-03-08T08:33:45;32.60;;;18.75;;
25948;SDS011;13961;51.178;4.448;2024-03-08T08:36:13;33.08;;;18.98;;
25948;SDS011;13961;51.178;4.448;2024-03-08T08:38:39;32.22;;;18.38;;
25948;SDS011;13961;51.178;4.448;2024-03-08T08:41:04;29.88;;;18.85;;
25948;SDS011;13961;51.178;4.448;2024-03-08T08:43:31;33.78;;;19.20;;
25948;SDS011;13961;51.178;4.448;2024-03-08T08:45:58;30.08;;;18.02;;
25948;SDS011;13961;51.178;4.448;2024-03-08T08:48:24;31.40;;;18.67;;
25948;SDS011;13961;51.178;4.448;2024-03-08T08:50:50;31.13;;;18.08;;
25948;SDS011;13961;51.178;4.448;2024-03-08T08:53:17;33.20;;;18.77;;
25948;SDS011;13961;51.178;4.448;2024-03-08T08:55:43;31.95;;;18.98;;
25948;SDS011;13961;51.178;4.448;2024-03-08T08:58:11;31.60;;;19.40;;
25948;SDS011;13961;51.178;4.448;2024-03-08T09:00:36;32.42;;;18.23;;
25948;SDS011;13961;51.178;4.448;2024-03-08T09:03:02;32.55;;;18.80;;
25948;SDS011;13961;51.178;4.448;2024-03-08T09:05:28;30.35;;;18.20;;
25948;SDS011;13961;51.178;4.448;2024-03-08T09:07:54;29.83;;;17.10;;
25948;SDS011;13961;51.178;4.448;2024-03-08T09:10:20;30.52;;;18.35;;
25948;SDS011;13961;51.178;4.448;2024-03-08T09:12:46;30.73;;;17.70;;
25948;SDS011;13961;51.178;4.448;2024-03-08T09:15:12;32.42;;;17.83;;
25948;SDS011;13961;51.178;4.448;2024-03-08T09:17:38;30.30;;;17.55;;
25948;SDS011;13961;51.178;4.448;2024-03-08T09:20:08;28.63;;;16.35;;
25948;SDS011;13961;51.178;4.448;2024-03-08T09:22:35;28.42;;;16.85;;
25948;SDS011;13961;51.178;4.448;2024-03-08T09:25:01;28.95;;;16.13;;
25948;SDS011;13961;51.178;4.448;2024-03-08T09:27:27;31.25;;;18.25;;
25948;SDS011;13961;51.178;4.448;2024-03-08T09:29:53;28.05;;;16.92;;
25948;SDS011;13961;51.178;4.448;2024-03-08T09:32:20;31.73;;;18.33;;
25948;SDS011;13961;51.178;4.448;2024-03-08T09:34:47;27.40;;;16.50;;
25948;SDS011;13961;51.178;4.448;2024-03-08T09:37:13;32.72;;;18.85;;
25948;SDS011;13961;51.178;4.448;2024-03-08T09:39:39;32.15;;;17.40;;
25948;SDS011;13961;51.178;4.448;2024-03-08T09:42:05;30.17;;;16.85;;
25948;SDS011;13961;51.178;4.448;2024-03-08T09:44:31;30.65;;;16.58;;
25948;SDS011;13961;51.178;4.448;2024-03-08T09:46:58;32.70;;;17.45;;
25948;SDS011;13961;51.178;4.448;2024-03-08T09:49:24;28.70;;;16.10;;
25948;SDS011;13961;51.178;4.448;2024-03-08T09:51:50;30.92;;;17.15;;
25948;SDS011;13961;51.178;4.448;2024-03-08T09:54:16;27.70;;;16.50;;
25948;SDS011;13961;51.178;4.448;2024-03-08T09:56:45;26.65;;;13.85;;
25948;SDS011;13961;51.178;4.448;2024-03-08T09:59:14;26.52;;;15.80;;
25948;SDS011;13961;51.178;4.448;2024-03-08T10:02:00;28.85;;;17.20;;
25948;SDS011;13961;51.178;4.448;2024-03-08T10:04:27;30.60;;;17.05;;
25948;SDS011;13961;51.178;4.448;2024-03-08T10:06:55;27.23;;;16.75;;
25948;SDS011;13961;51.178;4.448;2024-03-08T10:09:25;24.35;;;13.70;;
25948;SDS011;13961;51.178;4.448;2024-03-08T10:11:56;26.67;;;15.63;;
25948;SDS011;13961;51.178;4.448;2024-03-08T10:14:23;26.65;;;16.20;;
25948;SDS011;13961;51.178;4.448;2024-03-08T10:16:52;26.23;;;14.65;;
25948;SDS011;13961;51.178;4.448;2024-03-08T10:19:18;30.27;;;16.55;;
25948;SDS011;13961;51.178;4.448;2024-03-08T10:21:47;25.70;;;15.00;;
25948;SDS011;13961;51.178;4.448;2024-03-08T10:24:19;26.42;;;15.68;;
25948;SDS011;13961;51.178;4.448;2024-03-08T10:26:45;24.73;;;15.57;;
25948;SDS011;13961;51.178;4.448;2024-03-08T10:29:11;28.45;;;16.15;;
25948;SDS011;13961;51.178;4.448;2024-03-08T10:31:42;25.05;;;16.52;;
25948;SDS011;13961;51.178;4.448;2024-03-08T10:34:11;27.20;;;15.57;;
25948;SDS011;13961;51.178;4.448;2024-03-08T10:36:37;27.85;;;15.48;;
25948;SDS011;13961;51.178;4.448;2024-03-08T10:39:06;25.13;;;15.50;;
25948;SDS011;13961;51.178;4.448;2024-03-08T10:41:57;25.83;;;14.85;;
25948;SDS011;13961;51.178;4.448;2024-03-08T10:50:08;29.05;;;14.38;;
25948;SDS011;13961;51.178;4.448;2024-03-08T10:52:46;25.25;;;15.55;;
25948;SDS011;13961;51.178;4.448;2024-03-08T10:55:17;23.75;;;14.95;;
25948;SDS011;13961;51.178;4.448;2024-03-08T10:57:45;23.85;;;14.80;;
25948;SDS011;13961;51.178;4.448;2024-03-08T11:00:12;24.10;;;14.40;;
25948;SDS011;13961;51.178;4.448;2024-03-08T11:02:39;23.75;;;15.10;;
25948;SDS011;13961;51.178;4.448;2024-03-08T11:10:54;26.02;;;15.07;;
25948;SDS011;13961;51.178;4.448;2024-03-08T11:16:10;24.35;;;13.95;;
25948;SDS011;13961;51.178;4.448;2024-03-08T11:18:37;24.38;;;13.30;;
25948;SDS011;13961;51.178;4.448;2024-03-08T11:21:03;24.95;;;14.95;;
25948;SDS011;13961;51.178;4.448;2024-03-08T11:23:37;25.17;;;15.20;;
25948;SDS011;13961;51.178;4.448;2024-03-08T11:26:16;23.30;;;14.07;;
25948;SDS011;13961;51.178;4.448;2024-03-08T11:28:45;24.13;;;14.20;;
25948;SDS011;13961;51.178;4.448;2024-03-08T11:33:40;26.75;;;15.85;;
25948;SDS011;13961;51.178;4.448;2024-03-08T11:36:12;26.40;;;14.73;;
25948;SDS011;13961;51.178;4.448;2024-03-08T11:38:47;24.65;;;15.35;;
25948;SDS011;13961;51.178;4.448;2024-03-08T11:41:17;25.73;;;14.65;;
25948;SDS011;13961;51.178;4.448;2024-03-08T11:43:48;29.55;;;14.65;;
25948;SDS011;13961;51.178;4.448;2024-03-08T11:46:15;24.77;;;15.48;;
25948;SDS011;13961;51.178;4.448;2024-03-08T11:48:42;24.08;;;15.10;;
25948;SDS011;13961;51.178;4.448;2024-03-08T11:51:11;22.50;;;14.55;;
25948;SDS011;13961;51.178;4.448;2024-03-08T11:53:37;28.08;;;14.13;;
25948;SDS011;13961;51.178;4.448;2024-03-08T11:58:32;28.25;;;15.52;;
25948;SDS011;13961;51.178;4.448;2024-03-08T12:01:05;27.95;;;15.07;;
25948;SDS011;13961;51.178;4.448;2024-03-08T12:03:32;26.05;;;15.00;;
25948;SDS011;13961;51.178;4.448;2024-03-08T12:06:01;27.20;;;15.88;;
25948;SDS011;13961;51.178;4.448;2024-03-08T12:08:29;25.58;;;14.70;;
25948;SDS011;13961;51.178;4.448;2024-03-08T12:10:56;23.58;;;14.90;;
25948;SDS011;13961;51.178;4.448;2024-03-08T12:13:28;24.08;;;14.52;;
25948;SDS011;13961;51.178;4.448;2024-03-08T12:16:00;24.83;;;14.73;;
25948;SDS011;13961;51.178;4.448;2024-03-08T12:18:33;23.25;;;14.57;;
25948;SDS011;13961;51.178;4.448;2024-03-08T12:21:06;25.05;;;14.80;;
25948;SDS011;13961;51.178;4.448;2024-03-08T12:23:36;25.50;;;15.82;;
25948;SDS011;13961;51.178;4.448;2024-03-08T12:28:40;22.33;;;13.48;;
25948;SDS011;13961;51.178;4.448;2024-03-08T12:31:13;24.77;;;14.82;;
25948;SDS011;13961;51.178;4.448;2024-03-08T12:33:51;25.08;;;14.88;;
25948;SDS011;13961;51.178;4.448;2024-03-08T12:36:17;23.85;;;15.55;;
25948;SDS011;13961;51.178;4.448;2024-03-08T12:38:45;26.30;;;14.68;;
25948;SDS011;13961;51.178;4.448;2024-03-08T12:41:18;22.33;;;12.80;;
25948;SDS011;13961;51.178;4.448;2024-03-08T12:43:44;22.95;;;13.82;;
25948;SDS011;13961;51.178;4.448;2024-03-08T12:46:17;25.48;;;15.25;;
25948;SDS011;13961;51.178;4.448;2024-03-08T12:48:47;23.38;;;14.05;;
25948;SDS011;13961;51.178;4.448;2024-03-08T12:51:14;25.58;;;14.70;;
25948;SDS011;13961;51.178;4.448;2024-03-08T12:53:41;27.10;;;15.77;;
25948;SDS011;13961;51.178;4.448;2024-03-08T12:56:10;25.00;;;14.50;;
25948;SDS011;13961;51.178;4.448;2024-03-08T12:58:44;27.83;;;14.60;;
25948;SDS011;13961;51.178;4.448;2024-03-08T13:01:10;26.52;;;15.73;;
25948;SDS011;13961;51.178;4.448;2024-03-08T13:03:37;26.15;;;15.75;;
25948;SDS011;13961;51.178;4.448;2024-03-08T13:06:03;20.65;;;14.73;;
25948;SDS011;13961;51.178;4.448;2024-03-08T13:08:33;23.50;;;13.93;;
25948;SDS011;13961;51.178;4.448;2024-03-08T13:11:01;23.27;;;14.70;;
25948;SDS011;13961;51.178;4.448;2024-03-08T13:13:28;24.45;;;16.00;;
25948;SDS011;13961;51.178;4.448;2024-03-08T13:15:54;24.98;;;13.98;;
25948;SDS011;13961;51.178;4.448;2024-03-08T13:18:21;25.23;;;14.10;;
25948;SDS011;13961;51.178;4.448;2024-03-08T13:20:48;23.33;;;13.10;;
25948;SDS011;13961;51.178;4.448;2024-03-08T13:23:17;25.48;;;14.27;;
25948;SDS011;13961;51.178;4.448;2024-03-08T13:25:43;29.00;;;15.52;;
25948;SDS011;13961;51.178;4.448;2024-03-08T13:28:09;24.48;;;14.95;;
25948;SDS011;13961;51.178;4.448;2024-03-08T13:30:35;23.55;;;14.18;;
25948;SDS011;13961;51.178;4.448;2024-03-08T13:33:01;23.00;;;13.70;;
25948;SDS011;13961;51.178;4.448;2024-03-08T13:35:29;26.17;;;15.23;;
25948;SDS011;13961;51.178;4.448;2024-03-08T13:37:55;24.95;;;16.08;;
25948;SDS011;13961;51.178;4.448;2024-03-08T13:40:21;26.75;;;14.85;;
25948;SDS011;13961;51.178;4.448;2024-03-08T13:42:47;26.00;;;15.68;;
25948;SDS011;13961;51.178;4.448;2024-03-08T13:45:16;24.27;;;14.77;;
25948;SDS011;13961;51.178;4.448;2024-03-08T13:47:48;23.90;;;14.82;;
25948;SDS011;13961;51.178;4.448;2024-03-08T13:50:16;26.70;;;15.50;;
25948;SDS011;13961;51.178;4.448;2024-03-08T13:52:46;28.25;;;15.75;;
25948;SDS011;13961;51.178;4.448;2024-03-08T13:55:16;25.02;;;15.10;;
25948;SDS011;13961;51.178;4.448;2024-03-08T13:57:42;25.55;;;15.15;;
25948;SDS011;13961;51.178;4.448;2024-03-08T14:00:10;25.27;;;14.75;;
25948;SDS011;13961;51.178;4.448;2024-03-08T14:02:37;24.63;;;15.13;;
25948;SDS011;13961;51.178;4.448;2024-03-08T14:05:06;24.90;;;13.93;;
25948;SDS011;13961;51.178;4.448;2024-03-08T14:07:34;24.58;;;14.35;;
25948;SDS011;13961;51.178;4.448;2024-03-08T14:10:00;26.70;;;15.75;;
25948;SDS011;13961;51.178;4.448;2024-03-08T14:12:27;25.75;;;14.30;;
25948;SDS011;13961;51.178;4.448;2024-03-08T14:14:53;22.58;;;14.52;;
25948;SDS011;13961;51.178;4.448;2024-03-08T14:17:18;21.33;;;14.98;;
25948;SDS011;13961;51.178;4.448;2024-03-08T14:19:44;20.90;;;12.70;;
25948;SDS011;13961;51.178;4.448;2024-03-08T14:22:10;29.33;;;14.52;;
25948;SDS011;13961;51.178;4.448;2024-03-08T14:24:42;23.63;;;13.05;;
25948;SDS011;13961;51.178;4.448;2024-03-08T14:27:08;23.70;;;15.00;;
25948;SDS011;13961;51.178;4.448;2024-03-08T14:29:35;23.25;;;14.05;;
25948;SDS011;13961;51.178;4.448;2024-03-08T14:32:01;25.05;;;14.25;;
25948;SDS011;13961;51.178;4.448;2024-03-08T14:34:30;23.75;;;13.60;;
25948;SDS011;13961;51.178;4.448;2024-03-08T14:36:56;23.33;;;13.38;;
25948;SDS011;13961;51.178;4.448;2024-03-08T14:39:22;21.65;;;13.77;;
25948;SDS011;13961;51.178;4.448;2024-03-08T14:41:54;23.40;;;14.13;;
25948;SDS011;13961;51.178;4.448;2024-03-08T14:44:21;22.85;;;13.57;;